Time;durP1;ratioP1;P1;durP2;ratioP2;P2;SDS_P1;SDS_P2;PMS_P1;PMS_P2;Temp;Humidity;BMP_temperature;BMP_pressure;BME280_temperature;BME280_humidity;BME280_pressure;Samples;Min_cycle;Max_cycle;Signal;HPM_P1;HPM_P2
2022/05/06 00:02:23;;;;;;;7.35;1.70;;;;;;;23.71;39.64;102254.16;5074999;28;20028;-76
2022/05/06 00:04:49;;;;;;;6.63;2.08;;;;;;;23.76;39.30;102247.50;5074965;28;20078;-77
2022/05/06 00:07:15;;;;;;;5.45;2.03;;;;;;;23.62;39.88;102253.56;5056754;28;20044;-74
2022/05/06 00:09:42;;;;;;;3.45;1.90;;;;;;;23.69;39.73;102239.78;5075118;28;20036;-74
2022/05/06 00:12:08;;;;;;;5.88;1.98;;;;;;;23.63;39.78;102246.81;5075010;28;20059;-74
2022/05/06 00:14:37;;;;;;;3.55;2.30;;;;;;;23.63;39.76;102240.44;5075040;28;20443;-74
2022/05/06 00:17:03;;;;;;;4.75;2.53;;;;;;;23.60;39.50;102244.78;5074529;28;20467;-74
2022/05/06 00:19:29;;;;;;;8.85;3.03;;;;;;;23.62;39.61;102236.84;5074834;28;20032;-74
2022/05/06 00:21:55;;;;;;;4.75;2.05;;;;;;;23.61;39.39;102243.59;5074493;28;20028;-74
2022/05/06 00:24:21;;;;;;;5.82;2.58;;;;;;;23.52;39.48;102237.38;5074707;28;20099;-74
2022/05/06 00:26:46;;;;;;;5.68;2.65;;;;;;;23.50;39.37;102236.94;5074562;28;20123;-74
2022/05/06 00:29:12;;;;;;;4.40;2.63;;;;;;;23.41;39.82;102239.94;5074612;28;20090;-75
2022/05/06 00:31:38;;;;;;;4.43;2.25;;;;;;;23.30;40.24;102236.09;5074485;28;20024;-74
2022/05/06 00:34:03;;;;;;;4.63;2.10;;;;;;;23.24;39.78;102234.78;5074379;28;20032;-74
2022/05/06 00:36:29;;;;;;;6.38;2.50;;;;;;;23.17;40.06;102227.03;5074214;28;20063;-74
2022/05/06 00:38:55;;;;;;;4.78;2.22;;;;;;;23.13;40.09;102237.31;5074330;28;20078;-74
2022/05/06 00:41:20;;;;;;;4.90;2.65;;;;;;;23.20;40.21;102231.06;5074481;28;20021;-74
2022/05/06 00:43:46;;;;;;;6.07;2.28;;;;;;;23.18;40.09;102239.81;5074048;28;20036;-74
2022/05/06 00:46:15;;;;;;;8.38;3.05;;;;;;;23.20;40.01;102236.66;5056412;28;20029;-74
2022/05/06 00:48:44;;;;;;;5.93;2.33;;;;;;;23.29;39.86;102225.31;5056391;28;20364;-74
2022/05/06 00:51:10;;;;;;;4.78;2.15;;;;;;;23.37;39.65;102227.91;5074018;28;20120;-74
2022/05/06 00:53:36;;;;;;;8.55;2.28;;;;;;;23.13;40.21;102217.00;5074146;28;20056;-74
2022/05/06 00:56:04;;;;;;;3.88;2.55;;;;;;;23.23;40.14;102219.22;5073718;28;20035;-74
2022/05/06 00:58:32;;;;;;;4.03;2.20;;;;;;;23.18;40.14;102217.50;5074099;28;20025;-77
2022/05/06 01:00:57;;;;;;;7.60;2.15;;;;;;;23.14;40.58;102216.63;5073880;28;20445;-74
2022/05/06 01:03:23;;;;;;;2.47;1.75;;;;;;;23.02;40.51;102216.75;5074038;28;20036;-74
2022/05/06 01:05:52;;;;;;;4.63;1.98;;;;;;;23.03;40.83;102217.53;5073990;28;20498;-74
2022/05/06 01:08:17;;;;;;;5.38;2.10;;;;;;;23.09;40.48;102216.09;5073388;28;20049;-74
2022/05/06 01:10:43;;;;;;;5.05;1.70;;;;;;;23.06;40.81;102211.25;5073810;28;20051;-74
2022/05/06 01:13:09;;;;;;;5.22;2.53;;;;;;;23.08;40.52;102204.13;5073782;28;20082;-75
2022/05/06 01:15:36;;;;;;;6.50;2.33;;;;;;;23.11;40.57;102208.97;5073602;28;20032;-74
2022/05/06 01:18:02;;;;;;;3.53;2.20;;;;;;;23.17;40.46;102209.50;5073629;28;20158;-74
2022/05/06 01:20:27;;;;;;;2.83;1.80;;;;;;;23.19;40.46;102205.19;5073622;28;20020;-74
2022/05/06 01:22:56;;;;;;;2.90;1.88;;;;;;;23.25;40.47;102206.50;5073591;28;20054;-74
2022/05/06 01:25:22;;;;;;;6.50;2.13;;;;;;;23.38;40.06;102209.19;5073483;28;20487;-74
2022/05/06 01:28:04;;;;;;;5.95;2.45;;;;;;;23.24;40.66;102204.09;5073295;28;20025;-80
2022/05/06 01:30:34;;;;;;;6.20;2.63;;;;;;;23.24;40.28;102209.69;5073483;28;20386;-74
2022/05/06 01:33:03;;;;;;;4.75;1.83;;;;;;;23.31;40.60;102214.59;5073317;28;20048;-74
2022/05/06 01:35:30;;;;;;;4.63;1.97;;;;;;;23.29;40.58;102216.97;5072533;28;20103;-75
2022/05/06 01:38:00;;;;;;;7.30;3.03;;;;;;;23.25;40.49;102208.50;5055344;28;20292;-75
2022/05/06 01:40:27;;;;;;;6.35;2.38;;;;;;;23.23;40.66;102208.06;5055394;28;20038;-84
2022/05/06 01:42:57;;;;;;;4.40;2.10;;;;;;;23.24;40.53;102202.13;5073073;28;20032;-74
2022/05/06 01:45:23;;;;;;;4.65;2.22;;;;;;;23.30;40.66;102193.47;5055223;28;20029;-85
2022/05/06 01:47:52;;;;;;;3.20;1.98;;;;;;;23.37;40.16;102207.56;5072715;28;20032;-74
2022/05/06 01:50:20;;;;;;;4.40;1.77;;;;;;;23.46;40.11;102197.81;5073194;28;20051;-74
2022/05/06 01:52:50;;;;;;;5.47;2.47;;;;;;;23.49;40.13;102187.88;5073019;28;20055;-74
2022/05/06 01:55:16;;;;;;;4.65;2.15;;;;;;;23.45;40.18;102185.03;5072930;28;20364;-74
2022/05/06 01:57:43;;;;;;;4.30;1.80;;;;;;;23.38;40.33;102175.72;5072973;28;20127;-74
2022/05/06 02:00:09;;;;;;;5.47;2.00;;;;;;;23.17;40.76;102185.22;5072725;28;20557;-74
2022/05/06 02:02:35;;;;;;;3.53;2.28;;;;;;;23.26;40.52;102177.44;5054929;28;20024;-74
2022/05/06 02:05:20;;;;;;;4.78;2.20;;;;;;;22.92;41.29;102169.94;5072801;28;20024;-74
2022/05/06 02:07:52;;;;;;;4.63;1.92;;;;;;;22.67;41.51;102167.34;5072595;28;20044;-74
2022/05/06 02:10:20;;;;;;;7.10;2.38;;;;;;;22.73;41.63;102165.06;5032962;28;20034;-74
2022/05/06 02:12:46;;;;;;;5.00;1.90;;;;;;;22.73;41.55;102169.81;5032855;28;20071;-74
2022/05/06 02:15:13;;;;;;;3.22;1.80;;;;;;;22.77;41.44;102170.72;5037059;28;20017;-74
2022/05/06 02:17:39;;;;;;;6.78;3.10;;;;;;;22.70;41.33;102169.38;5052354;28;20067;-83
2022/05/06 02:20:07;;;;;;;7.38;2.80;;;;;;;22.68;41.42;102168.94;5052715;28;20018;-74
2022/05/06 02:22:33;;;;;;;4.25;2.03;;;;;;;22.80;40.91;102178.34;5067092;28;20036;-74
2022/05/06 02:24:59;;;;;;;3.10;1.85;;;;;;;22.70;41.43;102166.59;5054721;28;20390;-74
2022/05/06 02:27:25;;;;;;;4.07;1.95;;;;;;;22.70;41.47;102163.81;5072458;28;20024;-80
2022/05/06 02:35:19;;;;;;;5.68;2.10;;;;;;;22.51;41.76;102166.50;5072702;28;20039;-74
2022/05/06 02:37:45;;;;;;;4.88;1.90;;;;;;;22.73;41.50;102170.63;5072489;28;20393;-74
2022/05/06 02:40:12;;;;;;;4.60;1.52;;;;;;;22.77;41.29;102174.31;5072512;28;20052;-84
2022/05/06 02:42:37;;;;;;;4.28;2.05;;;;;;;22.66;41.56;102174.03;5072317;28;20033;-74
2022/05/06 02:45:04;;;;;;;6.97;2.10;;;;;;;22.71;41.44;102176.56;5072524;28;20102;-77
2022/05/06 02:47:30;;;;;;;4.85;1.95;;;;;;;22.84;40.97;102166.13;5072449;28;20397;-74
2022/05/06 02:49:56;;;;;;;8.88;2.05;;;;;;;22.84;41.10;102174.50;5072456;28;20104;-74
2022/05/06 02:52:24;;;;;;;5.65;2.65;;;;;;;22.88;40.99;102178.19;5054152;28;20028;-74
2022/05/06 02:54:50;;;;;;;6.57;2.13;;;;;;;22.89;40.96;102184.56;5071912;28;20104;-74
2022/05/06 02:57:16;;;;;;;3.55;1.73;;;;;;;22.89;40.94;102177.00;5072319;28;20099;-75
2022/05/06 02:59:41;;;;;;;4.40;2.08;;;;;;;22.88;41.01;102169.03;5073174;28;20020;-82
2022/05/06 03:02:07;;;;;;;3.58;1.65;;;;;;;22.89;40.92;102170.63;5076318;28;20032;-74
2022/05/06 03:04:33;;;;;;;3.17;2.35;;;;;;;22.91;40.79;102171.91;5076353;28;20067;-74
2022/05/06 03:06:59;;;;;;;4.45;2.20;;;;;;;22.91;40.95;102171.91;5075759;28;20135;-74
2022/05/06 03:09:25;;;;;;;6.63;2.25;;;;;;;22.89;40.89;102181.78;5076144;28;20025;-74
2022/05/06 03:11:52;;;;;;;4.40;2.53;;;;;;;22.87;40.98;102175.75;5076231;28;20028;-74
2022/05/06 03:14:18;;;;;;;5.00;2.15;;;;;;;22.77;41.03;102171.53;5076083;28;20017;-74
2022/05/06 03:16:44;;;;;;;5.40;2.22;;;;;;;22.64;41.24;102165.25;5075834;28;20024;-74
2022/05/06 03:19:11;;;;;;;5.60;2.10;;;;;;;22.60;41.45;102161.59;5076023;28;20032;-74
2022/05/06 03:21:37;;;;;;;3.78;1.85;;;;;;;22.60;41.48;102158.81;5075888;28;20463;-74
2022/05/06 03:24:03;;;;;;;3.42;2.05;;;;;;;22.51;41.67;102149.81;5075488;28;20029;-82
2022/05/06 03:26:28;;;;;;;3.88;2.00;;;;;;;22.53;41.44;102147.47;5333985;22;20086;-74
2022/05/06 03:28:57;;;;;;;4.07;2.00;;;;;;;22.55;41.43;102147.13;5074380;28;20024;-73
2022/05/06 03:31:26;;;;;;;7.55;2.30;;;;;;;22.52;41.72;102145.88;5091124;28;20032;-86
2022/05/06 03:33:54;;;;;;;2.42;1.83;;;;;;;22.59;41.52;102143.22;5096072;28;20477;-73
2022/05/06 03:36:20;;;;;;;3.28;1.73;;;;;;;22.56;41.41;102135.59;5096126;28;20036;-85
2022/05/06 03:38:46;;;;;;;3.30;2.13;;;;;;;22.53;41.64;102135.53;5095977;28;20031;-74
2022/05/06 03:41:12;;;;;;;4.28;1.88;;;;;;;22.37;41.65;102130.78;5094673;28;20393;-73
2022/05/06 03:43:37;;;;;;;6.95;1.95;;;;;;;22.28;42.22;102126.56;5096070;28;20024;-85
2022/05/06 03:46:03;;;;;;;5.55;2.00;;;;;;;22.22;42.56;102127.97;5094491;28;20031;-73
2022/05/06 03:48:28;;;;;;;3.65;1.52;;;;;;;22.18;42.43;102129.88;5096045;28;20032;-86
2022/05/06 03:53:39;;;;;;;3.20;1.73;;;;;;;22.12;42.51;102124.56;5095884;28;20391;-74
2022/05/06 03:56:05;;;;;;;3.80;1.73;;;;;;;22.26;42.18;102123.31;5094340;28;20032;-73
2022/05/06 03:58:32;;;;;;;3.97;1.48;;;;;;;22.26;42.16;102115.78;5093941;28;20030;-73
2022/05/06 04:00:58;;;;;;;3.80;1.45;;;;;;;22.23;42.44;102110.13;5095782;28;20591;-74
2022/05/06 04:03:24;;;;;;;4.40;1.50;;;;;;;22.20;42.05;102111.63;5095675;28;20024;-73
2022/05/06 04:05:50;;;;;;;4.97;1.58;;;;;;;22.11;42.35;102108.22;5095602;28;20706;-73
2022/05/06 04:08:16;;;;;;;4.10;1.60;;;;;;;22.10;42.27;102113.00;5095528;28;20028;-73
2022/05/06 04:10:41;;;;;;;3.20;1.63;;;;;;;22.05;42.66;102109.63;5095224;28;20032;-86
2022/05/06 04:13:07;;;;;;;4.57;1.85;;;;;;;22.14;42.27;102099.16;5095332;28;20026;-74
2022/05/06 04:15:33;;;;;;;5.25;1.20;;;;;;;22.11;42.51;102091.53;5095411;28;20093;-73
2022/05/06 04:18:02;;;;;;;6.53;2.00;;;;;;;22.15;42.25;102092.44;5095593;28;20024;-79
2022/05/06 04:23:30;;;;;;;2.05;1.40;;;;;;;22.00;42.58;102105.16;5095131;28;20107;-74
2022/05/06 04:25:57;;;;;;;2.38;1.10;;;;;;;21.84;43.04;102107.94;5093349;28;20040;-73
2022/05/06 04:28:23;;;;;;;5.78;2.25;;;;;;;21.85;43.04;102111.50;5095051;28;20030;-73
2022/05/06 04:30:51;;;;;;;5.90;1.80;;;;;;;21.95;42.77;102110.16;5095235;28;20099;-86
2022/05/06 04:33:18;;;;;;;3.78;1.70;;;;;;;22.00;42.62;102107.94;5094946;28;20020;-73
2022/05/06 04:35:44;;;;;;;4.15;1.35;;;;;;;21.80;43.05;102108.97;5094746;28;20081;-73
2022/05/06 04:38:10;;;;;;;4.80;1.75;;;;;;;21.84;43.11;102112.69;5093155;28;20436;-80
2022/05/06 04:40:36;;;;;;;2.90;1.60;;;;;;;21.95;42.84;102112.94;5094500;28;20113;-79
2022/05/06 04:43:01;;;;;;;4.72;1.83;;;;;;;21.92;42.81;102105.34;5094648;28;20028;-73
2022/05/06 04:45:28;;;;;;;4.85;1.55;;;;;;;21.82;42.99;102098.31;5093265;28;20035;-73
2022/05/06 04:47:54;;;;;;;7.88;2.67;;;;;;;21.78;43.29;102097.41;5094318;28;20469;-74
2022/05/06 04:50:20;;;;;;;3.65;1.20;;;;;;;21.76;43.15;102100.53;5094567;28;20032;-74
2022/05/06 04:52:45;;;;;;;2.95;1.45;;;;;;;21.77;43.14;102095.81;5094252;28;20082;-74
2022/05/06 04:55:11;;;;;;;5.18;1.77;;;;;;;21.73;43.27;102106.81;5093051;28;20024;-74
2022/05/06 04:57:36;;;;;;;4.85;1.35;;;;;;;21.83;43.11;102097.13;5094375;28;20024;-73
2022/05/06 05:00:04;;;;;;;4.95;1.95;;;;;;;21.75;43.27;102100.88;5094364;28;20020;-75
2022/05/06 05:02:29;;;;;;;4.68;1.88;;;;;;;21.69;43.26;102105.09;5094329;28;20024;-86
2022/05/06 05:04:58;;;;;;;2.60;1.90;;;;;;;21.82;42.97;102103.88;5094319;28;20054;-87
2022/05/06 05:07:26;;;;;;;5.78;2.45;;;;;;;21.73;43.17;102100.44;5093726;28;20057;-86
2022/05/06 05:09:52;;;;;;;39.25;6.32;;;;;;;21.64;43.73;102105.38;5094683;28;20024;-79
2022/05/06 05:12:18;;;;;;;7.40;2.47;;;;;;;21.68;43.39;102106.25;5094222;28;20532;-73
2022/05/06 05:14:44;;;;;;;9.30;2.65;;;;;;;21.64;43.71;102103.41;5094139;28;20028;-73
2022/05/06 05:17:11;;;;;;;3.63;2.28;;;;;;;21.65;43.57;102101.41;5094308;28;20036;-73
2022/05/06 05:19:37;;;;;;;4.35;2.08;;;;;;;21.41;44.34;102099.56;5094542;28;20026;-85
2022/05/06 05:22:04;;;;;;;5.47;2.28;;;;;;;21.47;44.07;102101.75;5093569;28;20059;-81
2022/05/06 05:24:30;;;;;;;4.20;2.22;;;;;;;21.43;44.12;102098.03;5094315;28;20076;-73
2022/05/06 05:26:57;;;;;;;3.53;2.13;;;;;;;21.37;44.52;102095.88;5094159;28;20524;-86
2022/05/06 05:29:23;;;;;;;4.95;2.45;;;;;;;21.42;44.50;102103.97;5094565;28;20533;-78
2022/05/06 05:31:52;;;;;;;7.78;2.85;;;;;;;21.42;44.62;102093.66;5094148;28;20493;-84
2022/05/06 05:34:18;;;;;;;8.18;2.58;;;;;;;21.48;44.61;102089.47;5093181;28;20494;-85
2022/05/06 05:36:44;;;;;;;11.07;3.20;;;;;;;21.53;44.51;102091.16;5093922;28;20120;-75
2022/05/06 05:39:11;;;;;;;4.28;2.28;;;;;;;21.41;44.59;102091.22;5092881;28;20031;-87
2022/05/06 05:41:37;;;;;;;5.13;3.00;;;;;;;21.67;44.31;102085.19;5094033;28;20480;-86
2022/05/06 05:49:32;;;;;;;6.80;2.72;;;;;;;21.91;43.50;102081.44;5093902;28;20081;-86
2022/05/06 05:51:57;;;;;;;4.97;2.88;;;;;;;21.92;43.48;102078.31;5092754;28;20487;-74
2022/05/06 05:54:23;;;;;;;4.45;2.55;;;;;;;22.04;43.49;102081.00;5091638;28;20046;-74
2022/05/06 05:56:49;;;;;;;4.13;2.03;;;;;;;22.17;43.17;102078.16;5091793;28;20118;-75
2022/05/06 05:59:14;;;;;;;8.43;3.10;;;;;;;22.19;43.05;102081.38;5093110;28;20054;-74
2022/05/06 06:01:40;;;;;;;6.43;2.83;;;;;;;22.15;43.23;102076.56;5093099;28;20113;-74
2022/05/06 06:04:06;;;;;;;6.90;3.55;;;;;;;22.17;43.20;102090.09;5092957;28;20024;-89
2022/05/06 06:06:31;;;;;;;5.20;2.70;;;;;;;22.27;43.11;102081.19;5091512;28;20028;-74
2022/05/06 06:08:57;;;;;;;6.05;2.28;;;;;;;22.38;42.62;102082.28;5092907;28;20024;-74
2022/05/06 06:11:22;;;;;;;6.78;2.60;;;;;;;22.47;42.76;102084.88;5093140;28;20028;-86
2022/05/06 06:13:48;;;;;;;5.65;2.83;;;;;;;22.50;42.56;102081.34;5092853;28;20056;-79
2022/05/06 06:16:14;;;;;;;3.65;2.05;;;;;;;22.52;42.66;102078.19;5091470;28;20059;-83
2022/05/06 06:18:39;;;;;;;5.40;2.28;;;;;;;22.59;42.60;102064.44;5091311;28;20036;-74
2022/05/06 06:21:06;;;;;;;4.95;2.50;;;;;;;22.40;43.05;102079.94;5092971;28;20459;-74
2022/05/06 06:23:32;;;;;;;7.00;2.20;;;;;;;22.37;43.10;102082.66;5093092;28;20409;-75
2022/05/06 06:25:58;;;;;;;5.60;2.08;;;;;;;22.57;42.72;102075.94;5072799;28;20045;-78
2022/05/06 06:28:24;;;;;;;4.95;1.98;;;;;;;22.44;43.28;102085.56;5072178;28;20025;-75
2022/05/06 06:30:50;;;;;;;5.90;2.15;;;;;;;22.48;43.09;102082.88;5072517;28;20029;-74
2022/05/06 06:33:16;;;;;;;4.28;1.70;;;;;;;22.65;42.61;102074.94;5072092;28;20016;-75
2022/05/06 06:35:42;;;;;;;3.97;1.73;;;;;;;22.75;42.54;102081.09;5072237;28;20059;-86
2022/05/06 06:38:07;;;;;;;5.07;2.28;;;;;;;22.63;43.00;102093.19;5072804;28;20040;-84
2022/05/06 06:40:34;;;;;;;5.20;1.85;;;;;;;22.68;42.55;102082.59;5071966;28;20441;-74
2022/05/06 06:43:04;;;;;;;5.05;1.90;;;;;;;22.73;42.43;102087.03;5068652;28;20365;-83
2022/05/06 06:45:30;;;;;;;6.65;1.60;;;;;;;22.64;42.82;102092.81;5071298;28;20492;-74
2022/05/06 06:47:57;;;;;;;6.82;1.90;;;;;;;22.54;43.07;102090.59;5071994;28;20111;-73
2022/05/06 06:50:24;;;;;;;4.80;1.83;;;;;;;22.67;42.65;102086.53;5061552;28;20033;-73
2022/05/06 06:52:50;;;;;;;3.08;1.80;;;;;;;22.66;42.88;102095.25;5058005;28;20028;-73
2022/05/06 06:55:17;;;;;;;3.50;2.28;;;;;;;22.64;43.04;102097.59;5070731;28;20032;-74
2022/05/06 06:57:43;;;;;;;4.38;1.60;;;;;;;22.54;43.25;102103.72;5071016;28;20033;-74
2022/05/06 07:00:09;;;;;;;5.07;2.00;;;;;;;22.58;43.28;102104.59;5061381;28;20029;-84
2022/05/06 07:02:39;;;;;;;2.45;1.40;;;;;;;22.67;42.94;102103.25;5071060;28;20028;-85
2022/05/06 07:05:04;;;;;;;4.03;1.88;;;;;;;22.67;43.07;102102.41;5071946;28;20056;-73
2022/05/06 07:12:59;;;;;;;4.85;1.50;;;;;;;22.49;44.03;102101.22;5071790;28;20051;-72
2022/05/06 07:15:27;;;;;;;5.18;2.42;;;;;;;22.53;44.29;102093.75;5080153;28;20032;-74
2022/05/06 07:17:52;;;;;;;3.67;1.65;;;;;;;22.49;44.37;102090.88;5092472;28;20208;-75
2022/05/06 07:20:18;;;;;;;4.13;1.70;;;;;;;22.40;44.76;102095.84;5092593;28;20062;-74
2022/05/06 07:22:43;;;;;;;4.10;1.90;;;;;;;22.46;44.65;102101.94;5076678;28;20538;-74
2022/05/06 07:25:09;;;;;;;4.13;1.92;;;;;;;22.46;44.73;102099.97;5072109;28;20032;-74
2022/05/06 07:27:35;;;;;;;3.65;1.83;;;;;;;22.54;44.75;102092.59;5071117;28;20037;-73
2022/05/06 07:30:06;;;;;;;4.65;1.95;;;;;;;22.55;45.16;102094.19;5071738;28;20024;-74
2022/05/06 07:32:32;;;;;;;4.95;1.52;;;;;;;22.73;44.78;102086.25;5077839;28;20028;-74
2022/05/06 07:34:58;;;;;;;4.28;1.90;;;;;;;22.77;44.80;102087.13;5090046;28;20355;-74
2022/05/06 07:37:24;;;;;;;2.97;1.48;;;;;;;22.79;44.85;102082.00;5089490;28;20098;-74
2022/05/06 07:39:50;;;;;;;4.50;1.75;;;;;;;22.75;44.96;102086.66;5089697;28;20020;-74
2022/05/06 07:42:16;;;;;;;1.90;1.20;;;;;;;22.70;45.21;102083.00;5089613;28;20077;-73
2022/05/06 07:44:42;;;;;;;4.95;1.75;;;;;;;22.78;45.55;102074.81;5089683;28;20489;-74
2022/05/06 07:47:07;;;;;;;3.13;1.40;;;;;;;22.83;45.16;102085.69;5092916;28;20028;-79
2022/05/06 07:49:33;;;;;;;5.20;1.73;;;;;;;22.67;45.97;102086.53;5094951;28;20134;-74
2022/05/06 07:51:58;;;;;;;4.03;1.50;;;;;;;22.67;45.89;102082.91;5095417;28;20050;-74
2022/05/06 07:54:24;;;;;;;5.43;1.35;;;;;;;22.91;45.15;102077.16;5095525;28;20062;-73
2022/05/06 07:56:50;;;;;;;4.93;1.48;;;;;;;22.86;45.18;102079.41;5095474;28;20069;-74
2022/05/06 07:59:15;;;;;;;4.95;2.05;;;;;;;23.11;44.73;102080.72;5095558;28;20027;-73
2022/05/06 08:04:34;;;;;;;3.70;1.63;;;;;;;23.21;44.51;102082.16;5095472;28;20034;-74
2022/05/06 08:07:01;;;;;;;4.10;1.50;;;;;;;23.13;44.97;102070.03;5094092;28;20161;-75
2022/05/06 08:09:26;;;;;;;8.80;2.00;;;;;;;23.17;44.97;102065.34;5095432;28;20031;-74
2022/05/06 08:11:52;;;;;;;11.13;2.10;;;;;;;23.23;44.56;102075.03;5095191;28;20371;-74
2022/05/06 08:14:19;;;;;;;3.28;1.73;;;;;;;23.09;44.93;102062.78;5095111;28;20055;-78
2022/05/06 08:16:49;;;;;;;6.07;1.85;;;;;;;23.23;44.44;102072.25;5094983;28;20027;-73
2022/05/06 08:19:15;;;;;;;6.82;1.58;;;;;;;22.84;45.12;102076.97;5095097;28;20488;-74
2022/05/06 08:21:40;;;;;;;11.52;3.00;;;;;;;23.05;44.46;102073.88;5095053;28;20063;-73
2022/05/06 08:24:06;;;;;;;4.57;1.30;;;;;;;22.95;44.95;102072.44;5095016;28;20031;-73
2022/05/06 08:26:32;;;;;;;13.13;2.75;;;;;;;22.95;44.81;102072.44;5094590;28;20052;-73
2022/05/06 08:28:59;;;;;;;5.15;1.50;;;;;;;23.28;43.74;102067.56;5094946;28;20031;-73
2022/05/06 08:31:24;;;;;;;5.85;1.60;;;;;;;23.21;44.16;102071.81;5093596;28;20060;-73
2022/05/06 08:33:50;;;;;;;7.15;2.30;;;;;;;23.39;43.88;102076.91;5094997;28;20059;-73
2022/05/06 08:36:15;;;;;;;5.82;1.85;;;;;;;23.46;43.28;102074.28;5093431;28;20161;-73
2022/05/06 08:38:43;;;;;;;2.50;1.20;;;;;;;23.46;43.85;102079.84;5094757;28;20031;-73
2022/05/06 08:41:10;;;;;;;3.22;1.40;;;;;;;23.37;43.60;102073.69;5095140;28;20032;-73
2022/05/06 08:43:37;;;;;;;3.35;1.45;;;;;;;23.16;44.18;102080.44;5094637;28;20038;-72
2022/05/06 08:51:35;;;;;;;6.60;1.98;;;;;;;23.69;43.42;102083.50;5094794;28;20509;-73
2022/05/06 08:54:01;;;;;;;4.00;1.83;;;;;;;23.08;44.75;102091.81;5094404;28;20024;-72
2022/05/06 08:56:27;;;;;;;3.15;2.13;;;;;;;23.27;44.55;102086.22;5094001;28;20028;-72
2022/05/06 08:58:54;;;;;;;3.08;1.75;;;;;;;23.42;43.99;102087.34;5093856;28;20032;-72
2022/05/06 09:01:22;;;;;;;4.07;1.52;;;;;;;23.23;44.63;102088.16;5094247;28;20020;-72
2022/05/06 09:03:48;;;;;;;3.58;1.58;;;;;;;23.12;44.82;102093.50;5092944;28;20027;-72
2022/05/06 09:06:19;;;;;;;4.32;1.55;;;;;;;23.23;44.88;102091.75;5094195;28;20046;-73
2022/05/06 09:08:46;;;;;;;1.60;1.30;;;;;;;23.38;44.47;102097.63;5092841;28;20028;-73
2022/05/06 09:11:12;;;;;;;4.05;2.13;;;;;;;23.40;44.59;102089.69;5092721;28;20085;-81
2022/05/06 09:13:51;;;;;;;4.13;1.77;;;;;;;23.68;44.51;102084.69;5094099;28;20032;-74
2022/05/06 09:16:40;;;;;;;5.37;1.73;;;;;;;23.87;44.32;102088.59;5093968;28;20428;-73
2022/05/06 09:19:19;;;;;;;2.28;1.42;;;;;;;23.85;44.85;102082.59;5094045;28;20110;-73
2022/05/06 09:22:17;;;;;;;1.95;1.38;;;;;;;23.70;44.60;102078.72;5093922;28;20031;-75
2022/05/06 09:24:47;;;;;;;2.03;1.50;;;;;;;24.00;43.95;102085.25;5093830;28;20032;-73
2022/05/06 09:27:17;;;;;;;3.78;2.13;;;;;;;24.03;43.98;102080.91;5093637;28;20044;-74
2022/05/06 09:29:44;;;;;;;2.85;1.40;;;;;;;24.26;43.20;102076.13;5094096;28;20040;-79
2022/05/06 09:32:17;;;;;;;3.17;1.38;;;;;;;24.28;43.42;102075.75;5093634;28;20023;-73
2022/05/06 09:34:45;;;;;;;3.58;1.45;;;;;;;24.29;43.23;102086.53;5092351;28;20051;-73
2022/05/06 09:37:11;;;;;;;2.67;1.60;;;;;;;24.33;43.90;102079.06;5092229;28;20024;-74
2022/05/06 09:39:39;;;;;;;3.22;1.95;;;;;;;24.42;44.24;102089.97;5093551;28;20024;-74
2022/05/06 09:42:06;;;;;;;3.70;1.80;;;;;;;24.37;44.75;102086.69;5093472;28;20355;-74
2022/05/06 09:44:34;;;;;;;1.70;1.33;;;;;;;24.32;44.57;102084.97;5093392;28;20047;-74
2022/05/06 09:47:15;;;;;;;1.98;1.35;;;;;;;24.61;44.34;102089.06;5093666;28;20521;-75
2022/05/06 09:49:43;;;;;;;3.60;1.90;;;;;;;24.70;43.94;102092.38;5092120;28;20059;-74
2022/05/06 09:52:13;;;;;;;2.67;1.42;;;;;;;24.85;43.47;102090.59;5093486;28;20078;-74
2022/05/06 09:54:41;;;;;;;2.53;1.40;;;;;;;24.65;43.48;102091.91;5093564;28;20111;-73
2022/05/06 09:57:09;;;;;;;4.88;1.50;;;;;;;24.44;44.06;102095.19;5093196;28;20064;-74
2022/05/06 09:59:36;;;;;;;2.83;1.42;;;;;;;24.41;44.33;102090.34;5091775;28;20024;-74
2022/05/06 10:02:03;;;;;;;2.40;1.40;;;;;;;24.11;44.84;102101.38;5093037;28;20085;-74
2022/05/06 10:04:29;;;;;;;2.95;1.65;;;;;;;24.25;44.71;102096.84;5093434;28;20024;-73
2022/05/06 10:07:00;;;;;;;6.03;2.08;;;;;;;24.26;44.89;102095.69;5093115;28;20030;-74
2022/05/06 10:09:27;;;;;;;6.60;2.60;;;;;;;24.31;44.15;102089.75;5093009;28;20031;-73
2022/05/06 10:11:55;;;;;;;6.85;1.80;;;;;;;24.46;44.46;102085.22;5093071;28;20497;-73
2022/05/06 10:14:22;;;;;;;3.00;1.30;;;;;;;24.46;44.23;102084.44;5093034;28;20055;-74
2022/05/06 10:16:48;;;;;;;2.63;1.23;;;;;;;24.32;44.65;102085.81;5092870;28;20114;-74
2022/05/06 10:19:44;;;;;;;7.35;1.85;;;;;;;24.13;45.65;102076.69;5092896;28;20047;-72
2022/05/06 10:22:10;;;;;;;6.93;1.88;;;;;;;24.48;44.88;102082.88;5092973;28;20024;-72
2022/05/06 10:24:50;;;;;;;4.18;1.67;;;;;;;24.51;44.97;102078.53;5091579;28;20058;-73
2022/05/06 10:27:23;;;;;;;7.10;1.52;;;;;;;24.21;45.61;102087.63;5091505;28;20058;-73
2022/05/06 10:32:54;;;;;;;13.82;3.00;;;;;;;24.18;45.87;102077.19;5092751;28;20034;-72
2022/05/06 10:35:37;;;;;;;5.40;1.70;;;;;;;24.30;45.71;102090.13;5092674;28;20028;-72
2022/05/06 10:38:17;;;;;;;3.10;1.60;;;;;;;24.32;45.63;102085.81;5092783;28;20466;-73
2022/05/06 10:40:56;;;;;;;8.57;2.33;;;;;;;24.15;45.99;102079.91;5092717;28;20039;-73
2022/05/06 10:43:44;;;;;;;2.60;1.70;;;;;;;24.29;45.84;102086.53;5092811;28;20024;-74
2022/05/06 10:46:10;;;;;;;4.25;1.77;;;;;;;24.41;45.18;102085.56;5092583;28;20027;-74
2022/05/06 10:48:36;;;;;;;2.50;1.50;;;;;;;24.32;45.67;102085.81;5092277;28;20028;-74
2022/05/06 10:51:22;;;;;;;6.53;2.10;;;;;;;24.39;44.94;102079.53;5092602;28;20543;-74
2022/05/06 10:53:48;;;;;;;6.60;2.75;;;;;;;24.29;45.45;102089.34;5092482;28;20027;-74
2022/05/06 10:56:14;;;;;;;4.22;1.95;;;;;;;24.29;45.34;102085.75;5092289;28;20032;-74
2022/05/06 10:58:41;;;;;;;5.28;2.00;;;;;;;24.17;45.76;102083.94;5092524;28;20493;-75
2022/05/06 11:01:14;;;;;;;4.38;1.70;;;;;;;24.10;45.65;102089.41;5092568;28;20466;-74
2022/05/06 11:03:53;;;;;;;4.70;2.17;;;;;;;24.03;45.91;102092.91;5091238;28;20032;-74
2022/05/06 11:06:23;;;;;;;9.32;3.00;;;;;;;24.05;46.16;102090.53;5092545;28;20016;-74
2022/05/06 11:08:49;;;;;;;2.55;1.60;;;;;;;24.16;45.70;102075.94;5091103;28;20043;-74
2022/05/06 11:11:16;;;;;;;3.50;1.85;;;;;;;24.17;45.88;102080.34;5092146;28;20024;-74
2022/05/06 11:13:44;;;;;;;8.63;2.45;;;;;;;24.19;45.99;102087.19;5092211;28;20032;-74
2022/05/06 11:16:12;;;;;;;9.40;2.85;;;;;;;24.08;46.32;102075.03;5092201;28;20415;-74
2022/05/06 11:18:42;;;;;;;3.90;1.90;;;;;;;24.17;46.52;102067.19;5092380;28;20024;-73
2022/05/06 11:21:31;;;;;;;5.95;1.98;;;;;;;24.09;46.74;102076.63;5094174;28;20475;-73
2022/05/06 11:23:57;;;;;;;2.43;1.20;;;;;;;24.26;46.23;102066.94;5096285;28;20111;-73
2022/05/06 11:26:31;;;;;;;8.77;2.45;;;;;;;24.32;46.25;102066.25;5095928;28;20076;-73
2022/05/06 11:29:02;;;;;;;7.13;1.67;;;;;;;24.19;46.67;102061.25;5096068;28;20036;-73
2022/05/06 11:31:28;;;;;;;3.00;1.38;;;;;;;24.19;46.65;102066.84;5096009;28;20107;-73
2022/05/06 11:33:58;;;;;;;5.50;2.58;;;;;;;24.11;46.76;102056.69;5095982;28;20024;-73
2022/05/06 11:36:24;;;;;;;5.80;1.90;;;;;;;24.20;46.36;102069.25;5094471;28;20512;-73
2022/05/06 11:38:50;;;;;;;3.03;1.30;;;;;;;24.17;46.59;102058.00;5095928;28;20020;-73
2022/05/06 11:41:17;;;;;;;3.53;1.30;;;;;;;24.14;46.63;102061.56;5095841;28;20084;-73
2022/05/06 11:43:45;;;;;;;3.90;1.40;;;;;;;24.22;46.37;102054.91;5095796;28;20611;-73
2022/05/06 11:48:59;;;;;;;2.53;1.48;;;;;;;24.14;46.74;102053.19;5096313;28;20093;-81
2022/05/06 11:51:30;;;;;;;1.33;0.85;;;;;;;24.20;46.59;102049.69;5095472;28;20494;-74
2022/05/06 11:53:57;;;;;;;1.83;1.10;;;;;;;24.32;46.10;102046.72;5095567;28;20024;-74
2022/05/06 11:56:27;;;;;;;3.55;1.38;;;;;;;24.29;46.41;102039.06;5095551;28;20028;-73
2022/05/06 11:58:57;;;;;;;2.83;1.30;;;;;;;24.08;47.29;102047.91;5095320;28;20035;-73
2022/05/06 12:01:33;;;;;;;4.20;1.00;;;;;;;24.19;46.95;102036.13;5091025;28;20032;-73
2022/05/06 12:04:09;;;;;;;8.73;2.53;;;;;;;24.23;47.08;102040.56;5095648;28;20024;-73